createdAt,value
2023-07-16T00:01:52.505Z,21.97
2023-07-16T00:06:55.746Z,21.03
2023-07-16T00:12:00.374Z,21.08
2023-07-16T00:17:03.672Z,21.62
2023-07-16T00:22:07.038Z,22.03
2023-07-16T00:27:11.595Z,21.69
2023-07-16T00:32:14.934Z,21.50
2023-07-16T00:37:18.220Z,21.60
2023-07-16T00:42:22.895Z,22.27
2023-07-16T00:47:26.231Z,21.61
2023-07-16T00:52:30.578Z,22.11
2023-07-16T00:57:35.403Z,21.15
2023-07-16T01:02:38.743Z,22.06
2023-07-16T01:07:46.963Z,21.44
2023-07-16T01:12:52.135Z,21.11
2023-07-16T01:17:55.510Z,21.26
2023-07-16T01:23:22.206Z,22.00
2023-07-16T01:28:56.360Z,22.12
2023-07-16T01:34:01.562Z,22.12
2023-07-16T01:39:04.959Z,21.73
2023-07-16T01:44:08.317Z,21.80
2023-07-16T01:49:12.850Z,21.98
2023-07-16T01:54:16.142Z,21.97
2023-07-16T01:59:19.341Z,21.72
2023-07-16T02:04:24.019Z,21.84
2023-07-16T02:09:27.387Z,21.94
2023-07-16T02:14:30.610Z,22.24
2023-07-16T02:19:35.582Z,22.03
2023-07-16T02:24:38.882Z,21.91
2023-07-16T02:29:42.107Z,21.58
2023-07-16T02:34:46.715Z,22.03
2023-07-16T02:39:49.979Z,21.49
2023-07-16T02:44:53.222Z,21.47
2023-07-16T02:49:57.888Z,21.87
2023-07-16T02:55:01.189Z,21.81
2023-07-16T03:00:05.108Z,21.91
2023-07-16T03:05:10.183Z,21.78
2023-07-16T03:10:13.377Z,21.50
2023-07-16T03:15:16.849Z,21.24
2023-07-16T03:20:21.936Z,21.54
2023-07-16T03:25:25.130Z,21.55
2023-07-16T03:30:28.392Z,21.43
2023-07-16T03:35:33.132Z,21.50
2023-07-16T03:40:36.502Z,21.17
2023-07-16T03:45:39.753Z,20.88
2023-07-16T03:50:44.321Z,21.20
2023-07-16T03:55:47.492Z,20.98
2023-07-16T04:00:50.762Z,21.22
2023-07-16T04:06:03.562Z,21.40
2023-07-16T04:11:07.713Z,21.21
2023-07-16T04:16:11.033Z,21.31
2023-07-16T04:21:15.667Z,21.07
2023-07-16T04:26:19.114Z,20.91
2023-07-16T04:31:22.658Z,21.51
2023-07-16T04:36:27.426Z,21.18
2023-07-16T04:41:30.618Z,21.04
2023-07-16T04:46:33.995Z,21.16
2023-07-16T04:51:38.583Z,20.94
2023-07-16T04:56:41.818Z,21.07
2023-07-16T05:01:45.121Z,21.02
2023-07-16T05:11:52.870Z,20.84
2023-07-16T05:16:56.427Z,21.46
2023-07-16T05:22:01.148Z,23.26
2023-07-16T05:27:04.768Z,22.75
2023-07-16T05:32:08.889Z,24.99
2023-07-16T05:37:14.005Z,24.09
2023-07-16T05:42:17.213Z,23.00
2023-07-16T05:47:21.838Z,23.22
2023-07-16T05:52:26.513Z,23.34
2023-07-16T05:57:29.730Z,23.32
2023-07-16T06:02:32.953Z,23.72
2023-07-16T06:07:37.518Z,22.63
2023-07-16T06:12:40.815Z,26.38
2023-07-16T06:17:44.094Z,28.16
2023-07-16T06:22:48.877Z,30.86
2023-07-16T06:27:52.156Z,30.32
2023-07-16T06:32:55.462Z,26.18
2023-07-16T06:38:00.057Z,25.06
2023-07-16T06:43:03.323Z,25.00
2023-07-16T06:48:07.513Z,24.98
2023-07-16T06:53:12.170Z,24.27
2023-07-16T06:58:16.396Z,23.76
2023-07-16T07:03:19.694Z,23.68
2023-07-16T07:08:24.506Z,24.61
2023-07-16T07:13:27.867Z,25.48
2023-07-16T07:18:31.205Z,25.18
2023-07-16T07:23:35.884Z,24.99
2023-07-16T07:28:39.080Z,25.34
2023-07-16T07:33:42.450Z,25.61
2023-07-16T07:38:47.082Z,26.44
2023-07-16T07:43:50.361Z,25.89
2023-07-16T07:48:53.711Z,25.52
2023-07-16T07:53:58.430Z,25.53
2023-07-16T07:59:01.910Z,26.33
2023-07-16T08:04:05.310Z,26.14
2023-07-16T08:09:10.183Z,25.65
2023-07-16T08:14:13.570Z,26.21
2023-07-16T08:19:16.838Z,25.71
2023-07-16T08:24:21.446Z,25.97
2023-07-16T08:29:24.618Z,25.67
2023-07-16T08:34:27.859Z,25.43
2023-07-16T08:39:33.674Z,25.79
2023-07-16T08:44:37.568Z,25.92
2023-07-16T08:49:41.971Z,26.37
2023-07-16T08:54:46.536Z,26.13
2023-07-16T08:59:50.358Z,26.69
2023-07-16T09:04:53.610Z,27.50
2023-07-16T09:10:02.236Z,26.98
2023-07-16T09:15:06.284Z,27.07
2023-07-16T09:20:11.128Z,27.33
2023-07-16T09:25:16.041Z,27.33
2023-07-16T09:30:19.505Z,26.88
2023-07-16T09:35:22.670Z,27.04
2023-07-16T09:40:27.545Z,27.14
2023-07-16T09:45:30.926Z,27.07
2023-07-16T09:50:36.141Z,27.45
2023-07-16T09:55:41.969Z,27.55
2023-07-16T10:00:45.390Z,27.48
2023-07-16T10:05:49.231Z,27.53
2023-07-16T10:10:58.300Z,27.23
2023-07-16T10:16:02.064Z,27.58
2023-07-16T10:21:08.188Z,27.78
2023-07-16T10:26:18.303Z,27.87
2023-07-16T10:31:24.570Z,28.29
2023-07-16T10:36:28.070Z,27.53
2023-07-16T10:41:33.083Z,27.23
2023-07-16T10:46:36.547Z,27.06
2023-07-16T10:51:39.887Z,27.42
2023-07-16T10:56:44.499Z,27.84
2023-07-16T11:01:48.318Z,27.31
2023-07-16T11:06:52.468Z,27.48
2023-07-16T11:11:57.285Z,27.61
2023-07-16T11:17:06.531Z,27.74
2023-07-16T11:22:10.636Z,28.29
2023-07-16T11:27:19.248Z,27.99
2023-07-16T11:32:32.932Z,28.55
2023-07-16T11:37:38.014Z,27.76
2023-07-16T11:42:43.275Z,28.66
2023-07-16T11:47:46.766Z,29.11
2023-07-16T11:52:54.609Z,28.95
2023-07-16T11:58:00.825Z,29.16
2023-07-16T12:03:04.418Z,29.32
2023-07-16T12:08:07.673Z,29.30
2023-07-16T12:13:12.436Z,29.64
2023-07-16T12:18:15.716Z,29.45
2023-07-16T12:23:19.050Z,29.57
2023-07-16T12:28:23.632Z,29.32
2023-07-16T12:33:26.979Z,29.73
2023-07-16T12:38:30.223Z,29.53
2023-07-16T12:43:36.908Z,30.25
2023-07-16T12:48:42.653Z,30.26
2023-07-16T12:53:46.246Z,30.49
2023-07-16T12:58:51.213Z,30.77
2023-07-16T13:03:54.496Z,31.19
2023-07-16T13:08:57.934Z,31.04
2023-07-16T13:14:02.553Z,31.22
2023-07-16T13:19:06.169Z,30.99
2023-07-16T13:24:09.415Z,31.17
2023-07-16T13:29:14.052Z,31.54
2023-07-16T13:34:17.291Z,31.33
2023-07-16T13:39:20.678Z,30.98
2023-07-16T13:44:25.474Z,31.10
2023-07-16T13:49:28.783Z,31.71
2023-07-16T13:54:32.021Z,30.53
2023-07-16T13:59:36.672Z,30.39
2023-07-16T14:04:40.016Z,30.64
2023-07-16T14:09:43.293Z,30.29
2023-07-16T14:14:47.910Z,30.61
2023-07-16T14:19:51.533Z,30.55
2023-07-16T14:24:54.767Z,30.40
2023-07-16T14:30:05.927Z,30.60
2023-07-16T14:35:18.565Z,30.66
2023-07-16T14:40:29.229Z,30.56
2023-07-16T14:45:34.249Z,30.49
2023-07-16T14:50:37.547Z,30.27
2023-07-16T14:55:41.163Z,30.50
2023-07-16T15:00:46.096Z,30.74
2023-07-16T15:05:49.356Z,29.95
2023-07-16T15:10:53.422Z,29.88
2023-07-16T15:15:59.489Z,29.68
2023-07-16T15:21:04.215Z,29.68
2023-07-16T15:26:12.240Z,29.25
2023-07-16T15:31:16.943Z,29.91
2023-07-16T15:36:20.638Z,30.03
2023-07-16T15:41:26.471Z,29.62
2023-07-16T15:46:31.186Z,29.59
2023-07-16T15:51:37.280Z,29.86
2023-07-16T15:56:40.485Z,29.76
2023-07-16T16:01:45.328Z,29.26
2023-07-16T16:06:48.601Z,29.85
2023-07-16T16:11:52.035Z,29.37
2023-07-16T16:17:06.812Z,29.37
2023-07-16T16:22:11.683Z,29.41
2023-07-16T16:27:17.273Z,29.36
2023-07-16T16:32:21.917Z,29.13
2023-07-16T16:37:25.404Z,29.13
2023-07-16T16:42:28.582Z,29.23
2023-07-16T16:47:33.330Z,29.10
2023-07-16T16:52:36.795Z,29.05
2023-07-16T16:57:40.043Z,29.12
2023-07-16T17:02:44.648Z,29.06
2023-07-16T17:07:47.938Z,28.97
2023-07-16T17:12:51.206Z,28.91
2023-07-16T17:17:58.848Z,28.95
2023-07-16T17:23:03.539Z,28.79
2023-07-16T17:28:06.960Z,28.35
2023-07-16T17:33:11.898Z,28.48
2023-07-16T17:38:15.113Z,28.64
2023-07-16T17:43:18.329Z,28.68
2023-07-16T17:48:23.312Z,29.23
2023-07-16T17:53:26.598Z,28.93
2023-07-16T17:58:30.757Z,29.07
2023-07-16T18:03:35.503Z,28.76
2023-07-16T18:08:39.196Z,28.99
2023-07-16T18:13:42.851Z,28.93
2023-07-16T18:18:47.511Z,28.33
2023-07-16T18:23:51.374Z,27.86
2023-07-16T18:28:54.633Z,27.49
2023-07-16T18:33:59.374Z,27.28
2023-07-16T18:39:03.893Z,27.02
2023-07-16T18:44:09.631Z,27.32
2023-07-16T18:49:14.412Z,27.17
2023-07-16T18:54:18.279Z,27.03
2023-07-16T18:59:21.552Z,26.86
2023-07-16T19:04:26.277Z,26.75
2023-07-16T19:09:29.556Z,26.77
2023-07-16T19:14:32.863Z,26.50
2023-07-16T19:19:37.470Z,26.41
2023-07-16T19:24:40.953Z,26.23
2023-07-16T19:29:44.339Z,25.99
2023-07-16T19:34:49.300Z,25.87
2023-07-16T19:39:52.559Z,25.59
2023-07-16T19:44:56.925Z,25.76
2023-07-16T19:50:06.241Z,25.80
2023-07-16T19:55:09.738Z,25.87
2023-07-16T20:00:14.154Z,25.33
2023-07-16T20:05:19.319Z,25.57
2023-07-16T20:10:22.843Z,25.75
2023-07-16T20:15:26.788Z,25.77
2023-07-16T20:20:31.428Z,25.71
2023-07-16T20:25:34.617Z,25.18
2023-07-16T20:30:38.183Z,24.81
2023-07-16T20:35:42.773Z,25.07
2023-07-16T20:40:47.900Z,25.07
2023-07-16T20:45:51.234Z,25.11
2023-07-16T20:50:55.805Z,24.72
2023-07-16T20:56:00.050Z,24.89
2023-07-16T21:01:04.772Z,24.59
2023-07-16T21:06:09.475Z,24.84
2023-07-16T21:11:12.802Z,24.67
2023-07-16T21:16:16.110Z,24.59
2023-07-16T21:21:21.426Z,24.61
2023-07-16T21:26:24.727Z,24.64
2023-07-16T21:31:28.051Z,24.71
2023-07-16T21:36:32.680Z,24.68
2023-07-16T21:41:36.077Z,23.75
2023-07-16T21:46:39.323Z,24.25
2023-07-16T21:51:44.182Z,24.23
2023-07-16T21:56:47.506Z,24.21
2023-07-16T22:01:50.775Z,24.42
2023-07-16T22:06:55.475Z,24.53
2023-07-16T22:11:58.740Z,24.42
2023-07-16T22:17:01.930Z,24.15
2023-07-16T22:22:07.202Z,24.22
2023-07-16T22:27:10.595Z,24.00
2023-07-16T22:32:13.826Z,24.23
2023-07-16T22:37:18.499Z,23.39
2023-07-16T22:42:21.662Z,22.71
2023-07-16T22:47:24.907Z,23.64
2023-07-16T22:52:29.498Z,23.69
2023-07-16T22:57:32.783Z,23.69
2023-07-16T23:02:36.133Z,22.69
2023-07-16T23:07:42.510Z,23.17
2023-07-16T23:12:46.033Z,23.19
2023-07-16T23:17:49.287Z,23.32
2023-07-16T23:22:54.089Z,23.51
2023-07-16T23:27:57.355Z,23.71
2023-07-16T23:33:00.684Z,23.77
2023-07-16T23:38:05.574Z,23.73
2023-07-16T23:43:09.055Z,23.63
2023-07-16T23:48:12.322Z,23.49
2023-07-16T23:53:18.593Z,23.46
2023-07-16T23:58:22.238Z,23.49
